Terminal Aerodrome Forecast
Issued by NWS

Home | Current Version | Previous Version | Text Only | Print | Product List | Glossary Off
Versions: 1 2 3 4 5 6 7 8 9 10 11 12 13 14 15 16 17 18 19 20

000
FTUS43 KICT 301120
TAFHUT
TAF
KHUT 301120Z 3012/3112 27006KT P6SM -TSRA SCT020 BKN050CB
     FM301400 10005KT P6SM -RA BKN050
     FM301600 11008KT P6SM SCT050 SCT100
     FM310400 16007KT P6SM SCT250=

USA.gov is the U.S. government's official web portal to all federal, state and local government web resources and services.